Time;durP1;ratioP1;P1;durP2;ratioP2;P2;SDS_P1;SDS_P2;PMS_P1;PMS_P2;Temp;Humidity;BMP_temperature;BMP_pressure;BME280_temperature;BME280_humidity;BME280_pressure;Samples;Min_cycle;Max_cycle;Signal;HPM_P1;HPM_P2
2021/12/26 00:01:13;;;;;;;4.57;0.83;;;-5.70;99.90;;;;;;5074521;28;20059;-76
2021/12/26 00:03:40;;;;;;;2.53;0.70;;;-5.70;99.90;;;;;;5091301;28;20055;-74
2021/12/26 00:06:11;;;;;;;2.60;0.57;;;-5.70;99.90;;;;;;5074720;28;20376;-77
2021/12/26 00:08:43;;;;;;;4.23;0.93;;;-5.70;99.90;;;;;;5092483;28;20047;-76
2021/12/26 00:11:09;;;;;;;3.40;1.00;;;-5.70;99.90;;;;;;5096058;28;20474;-76
2021/12/26 00:13:36;;;;;;;2.83;0.90;;;-5.80;99.90;;;;;;5078794;28;20064;-78
2021/12/26 00:16:04;;;;;;;2.03;0.47;;;-5.80;99.90;;;;;;5096457;28;20127;-76
2021/12/26 00:18:29;;;;;;;5.20;0.83;;;-5.70;99.90;;;;;;5078119;28;20089;-76
2021/12/26 00:20:55;;;;;;;4.73;1.10;;;-5.70;99.90;;;;;;5096400;28;20036;-77
2021/12/26 00:23:21;;;;;;;3.88;0.88;;;-5.70;99.90;;;;;;5096466;28;20043;-76
2021/12/26 00:25:48;;;;;;;3.47;0.97;;;-5.70;99.90;;;;;;5095290;28;20411;-75
2021/12/26 00:28:14;;;;;;;3.25;1.00;;;-5.70;99.90;;;;;;5095026;28;20071;-76
2021/12/26 00:30:41;;;;;;;1.92;0.65;;;-5.80;99.90;;;;;;5062342;28;20372;-76
2021/12/26 00:33:07;;;;;;;4.40;1.20;;;-5.80;99.90;;;;;;5096206;28;20055;-75
2021/12/26 00:35:33;;;;;;;3.33;0.93;;;-5.80;99.90;;;;;;5078280;28;20119;-75
2021/12/26 00:37:59;;;;;;;5.18;2.00;;;-5.80;99.90;;;;;;5079529;28;20047;-76
2021/12/26 00:40:26;;;;;;;7.13;1.30;;;-5.90;99.90;;;;;;5096240;28;20054;-76
2021/12/26 00:42:53;;;;;;;3.25;0.90;;;-5.90;99.90;;;;;;5096751;28;20052;-76
2021/12/26 00:45:19;;;;;;;4.22;1.17;;;-5.80;99.90;;;;;;5078855;28;20449;-75
2021/12/26 00:47:46;;;;;;;4.03;1.30;;;-5.80;99.90;;;;;;5094988;28;20052;-76
2021/12/26 00:50:15;;;;;;;7.18;0.95;;;-5.80;99.90;;;;;;5094830;28;20093;-76
2021/12/26 00:52:40;;;;;;;3.70;1.10;;;-5.80;99.90;;;;;;5095602;28;20404;-77
2021/12/26 00:55:09;;;;;;;6.80;1.00;;;-5.80;99.90;;;;;;5080183;28;20044;-77
2021/12/26 00:57:36;;;;;;;9.05;1.13;;;-5.80;99.90;;;;;;5102824;28;20131;-76
2021/12/26 01:00:05;;;;;;;4.63;1.25;;;-5.80;99.90;;;;;;5116588;28;20051;-76
2021/12/26 01:02:31;;;;;;;2.08;0.60;;;-5.80;99.90;;;;;;5116097;28;20087;-76
2021/12/26 01:04:57;;;;;;;5.57;0.95;;;-5.70;99.90;;;;;;5081853;28;20044;-77
2021/12/26 01:07:44;;;;;;;2.95;0.65;;;-5.80;99.90;;;;;;5081343;28;20051;-77
2021/12/26 01:10:10;;;;;;;5.20;1.33;;;-5.80;99.90;;;;;;5101017;28;20040;-76
2021/12/26 01:12:37;;;;;;;3.88;1.20;;;-5.80;99.90;;;;;;5116292;28;20050;-76
2021/12/26 01:15:08;;;;;;;4.22;1.27;;;-5.80;99.90;;;;;;5097931;28;20044;-76
2021/12/26 01:17:35;;;;;;;3.13;1.10;;;-5.80;99.90;;;;;;5116069;28;20051;-76
2021/12/26 01:20:06;;;;;;;2.83;0.90;;;-5.80;99.90;;;;;;5115141;28;20044;-75
2021/12/26 01:22:31;;;;;;;7.53;1.35;;;-5.90;99.90;;;;;;5114268;28;20044;-75
2021/12/26 01:24:58;;;;;;;4.53;0.95;;;-5.90;99.90;;;;;;5081128;28;20138;-75
2021/12/26 01:27:26;;;;;;;5.05;1.20;;;-5.90;99.90;;;;;;5096826;28;20047;-79
2021/12/26 01:29:53;;;;;;;3.92;1.17;;;-6.00;99.90;;;;;;5097522;28;20079;-76
2021/12/26 01:32:20;;;;;;;7.65;1.52;;;-6.00;99.90;;;;;;5097765;28;20055;-75
2021/12/26 01:34:47;;;;;;;4.82;1.15;;;-6.00;99.90;;;;;;5097646;28;20056;-76
2021/12/26 01:37:13;;;;;;;;;;;-6.00;99.90;;;;;;5116006;28;20048;-76
2021/12/26 01:39:39;;;;;;;4.30;1.02;;;-6.00;99.90;;;;;;5115661;28;19926;-76
2021/12/26 01:42:08;;;;;;;3.97;0.93;;;-5.90;99.90;;;;;;5081072;28;20454;-78
2021/12/26 01:44:34;;;;;;;4.80;1.33;;;-6.00;99.90;;;;;;5116791;27;20104;-76
2021/12/26 01:47:01;;;;;;;3.45;0.80;;;-5.90;99.90;;;;;;5082090;28;20418;-75
2021/12/26 01:49:30;;;;;;;5.10;1.47;;;-5.80;99.90;;;;;;5102318;28;20040;-77
2021/12/26 01:51:58;;;;;;;4.23;0.97;;;-5.90;99.90;;;;;;5142362;27;20141;-76
2021/12/26 01:54:39;;;;;;;2.88;1.00;;;-5.90;99.90;;;;;;5095589;28;20395;-77
2021/12/26 01:57:09;;;;;;;6.10;0.80;;;-5.90;99.90;;;;;;5110653;28;20061;-76
2021/12/26 01:59:37;;;;;;;2.67;0.53;;;-5.90;99.90;;;;;;5143964;27;20058;-77
2021/12/26 02:02:03;;;;;;;3.17;1.00;;;-5.90;99.90;;;;;;5128325;28;20074;-76
2021/12/26 02:04:29;;;;;;;7.70;1.05;;;-5.90;99.90;;;;;;5125827;28;20051;-78
2021/12/26 02:06:57;;;;;;;4.00;0.88;;;-6.00;99.90;;;;;;5106143;28;20047;-77
2021/12/26 02:09:23;;;;;;;3.85;1.27;;;-5.90;99.90;;;;;;5127165;28;20043;-77
2021/12/26 02:11:49;;;;;;;4.05;1.17;;;-5.90;99.90;;;;;;5138270;27;20047;-77
2021/12/26 02:14:14;;;;;;;4.47;1.30;;;-6.00;99.90;;;;;;5135287;27;20059;-79
2021/12/26 02:16:41;;;;;;;4.25;1.02;;;-6.00;99.90;;;;;;5098902;28;20044;-76
2021/12/26 02:19:07;;;;;;;2.65;0.70;;;-6.00;99.90;;;;;;5098047;28;20050;-76
2021/12/26 02:24:27;;;;;;;3.15;0.80;;;-6.00;99.90;;;;;;5082327;28;20085;-77
2021/12/26 02:29:42;;;;;;;1.30;0.53;;;-5.80;99.90;;;;;;5115024;28;20051;-77
2021/12/26 02:32:09;;;;;;;5.03;1.00;;;-5.80;99.90;;;;;;5063151;28;20487;-77
2021/12/26 02:34:35;;;;;;;5.35;1.48;;;-5.80;99.90;;;;;;5063569;28;20542;-76
2021/12/26 02:37:01;;;;;;;3.97;0.80;;;-5.80;99.90;;;;;;5096866;28;20079;-77
2021/12/26 02:39:27;;;;;;;2.72;0.82;;;-5.80;99.90;;;;;;5096006;28;20048;-77
2021/12/26 02:41:53;;;;;;;4.80;1.23;;;-5.80;99.90;;;;;;5095887;28;20047;-77
2021/12/26 02:44:18;;;;;;;6.45;1.55;;;-5.90;99.90;;;;;;5113060;28;20043;-80
2021/12/26 02:46:44;;;;;;;4.87;1.20;;;-6.00;99.90;;;;;;5113358;27;20054;-77
2021/12/26 02:49:10;;;;;;;3.65;1.05;;;-6.00;99.90;;;;;;5114125;28;20047;-76
2021/12/26 02:51:36;;;;;;;2.95;1.02;;;-6.00;99.90;;;;;;5095531;28;20075;-77
2021/12/26 02:54:03;;;;;;;5.50;1.67;;;-6.00;99.90;;;;;;5095938;28;20090;-77
2021/12/26 02:56:29;;;;;;;4.60;1.35;;;-6.00;99.90;;;;;;5062214;28;20556;-77
2021/12/26 02:58:56;;;;;;;1.15;0.50;;;-6.00;99.90;;;;;;5095820;28;20044;-76
2021/12/26 03:01:25;;;;;;;5.80;1.90;;;-6.00;99.90;;;;;;5113847;28;20048;-77
2021/12/26 03:03:51;;;;;;;4.77;1.47;;;-6.00;99.90;;;;;;5115262;28;20111;-75
2021/12/26 03:06:25;;;;;;;4.45;1.40;;;-6.00;99.90;;;;;;5079025;28;20082;-76
2021/12/26 03:08:54;;;;;;;3.85;1.30;;;-6.10;99.90;;;;;;5114572;28;20126;-75
2021/12/26 03:11:20;;;;;;;4.43;1.57;;;-6.10;99.90;;;;;;5115215;28;20399;-77
2021/12/26 03:13:46;;;;;;;3.75;1.55;;;-6.10;99.90;;;;;;5096681;28;20466;-76
2021/12/26 03:16:12;;;;;;;4.13;1.15;;;-6.10;99.90;;;;;;5079816;28;20051;-76
2021/12/26 03:18:37;;;;;;;6.13;1.27;;;-6.10;99.90;;;;;;5096485;28;20194;-76
2021/12/26 03:21:03;;;;;;;3.90;1.17;;;-6.00;99.90;;;;;;5113922;28;20252;-75
2021/12/26 03:23:29;;;;;;;7.80;1.88;;;-6.00;99.90;;;;;;5114532;28;20149;-77
2021/12/26 03:26:00;;;;;;;3.22;1.08;;;-6.00;99.90;;;;;;5096408;28;20356;-77
2021/12/26 03:28:28;;;;;;;4.65;1.80;;;-6.10;99.90;;;;;;5113981;28;20048;-77
2021/12/26 03:30:54;;;;;;;5.85;2.00;;;-6.10;99.90;;;;;;5096329;28;20056;-79
2021/12/26 03:33:21;;;;;;;9.25;2.00;;;-6.00;99.90;;;;;;5079424;28;20047;-76
2021/12/26 03:35:47;;;;;;;4.88;1.50;;;-6.10;99.90;;;;;;5096210;28;20168;-77
2021/12/26 03:38:15;;;;;;;8.23;1.50;;;-6.10;99.90;;;;;;5129888;27;20050;-76
2021/12/26 03:40:41;;;;;;;;;;;-6.10;99.90;;;;;;5079997;28;20104;-76
2021/12/26 03:43:08;;;;;;;8.93;2.08;;;-5.90;99.90;;;;;;5114297;28;19976;-76
2021/12/26 03:45:34;;;;;;;4.97;1.67;;;-6.00;99.90;;;;;;5118208;28;20054;-77
2021/12/26 03:48:00;;;;;;;4.57;1.63;;;-6.10;99.90;;;;;;5097244;28;20410;-76
2021/12/26 03:50:28;;;;;;;6.05;1.75;;;-6.00;99.90;;;;;;5079940;28;20055;-80
2021/12/26 03:52:57;;;;;;;5.07;1.15;;;-6.10;99.90;;;;;;5096694;28;20126;-76
2021/12/26 03:55:27;;;;;;;8.93;2.15;;;-6.10;99.90;;;;;;5097677;28;20108;-76
2021/12/26 03:57:54;;;;;;;5.10;1.63;;;-6.10;99.90;;;;;;5117007;28;20116;-77
2021/12/26 04:00:21;;;;;;;4.27;1.17;;;-6.10;99.90;;;;;;5082339;28;20401;-76
2021/12/26 04:02:47;;;;;;;3.70;1.67;;;-6.10;99.90;;;;;;5116065;28;20092;-76
2021/12/26 04:05:14;;;;;;;9.50;2.60;;;-6.10;99.90;;;;;;5080395;28;20395;-76
2021/12/26 04:07:42;;;;;;;6.05;1.48;;;-6.20;99.90;;;;;;5115291;28;20103;-77
2021/12/26 04:10:08;;;;;;;6.38;1.55;;;-6.20;99.90;;;;;;5114638;28;20051;-76
2021/12/26 04:12:36;;;;;;;5.30;1.48;;;-6.20;99.90;;;;;;5096535;28;20134;-75
2021/12/26 04:15:08;;;;;;;6.10;1.97;;;-6.10;99.90;;;;;;5114723;28;20059;-75
2021/12/26 04:17:34;;;;;;;3.83;1.27;;;-6.10;99.90;;;;;;5079649;28;20051;-76
2021/12/26 04:20:01;;;;;;;7.20;2.20;;;-6.10;99.90;;;;;;5113583;28;20168;-76
2021/12/26 04:22:27;;;;;;;7.90;2.07;;;-6.20;99.90;;;;;;5114722;28;20293;-76
2021/12/26 04:24:52;;;;;;;5.30;1.48;;;-6.20;99.90;;;;;;5096538;28;20277;-75
2021/12/26 04:27:18;;;;;;;6.47;1.65;;;-6.10;99.90;;;;;;5130487;28;20053;-77
2021/12/26 04:29:44;;;;;;;8.20;2.15;;;-6.10;99.90;;;;;;5096874;28;20069;-76
2021/12/26 04:32:10;;;;;;;6.10;1.80;;;-6.10;99.90;;;;;;5095872;28;20534;-76
2021/12/26 04:34:36;;;;;;;5.30;1.40;;;-6.20;99.90;;;;;;5114529;28;20043;-76
2021/12/26 04:37:02;;;;;;;5.87;1.93;;;-6.10;99.90;;;;;;5112341;28;20521;-77
2021/12/26 04:39:28;;;;;;;3.92;0.90;;;-6.10;99.90;;;;;;5062108;28;20093;-78
2021/12/26 04:41:54;;;;;;;5.60;1.77;;;-6.10;99.90;;;;;;5094973;28;20043;-76
2021/12/26 04:44:23;;;;;;;6.85;1.83;;;-6.10;99.90;;;;;;5094971;28;20039;-77
2021/12/26 04:46:49;;;;;;;5.72;1.70;;;-6.20;99.90;;;;;;5096055;28;20300;-75
2021/12/26 04:49:15;;;;;;;7.30;2.20;;;-6.10;99.90;;;;;;5077907;28;20043;-75
2021/12/26 04:51:41;;;;;;;8.15;2.60;;;-6.20;99.90;;;;;;5113097;28;20070;-75
2021/12/26 04:54:07;;;;;;;6.40;1.73;;;-6.10;99.90;;;;;;5094861;28;20065;-75
2021/12/26 04:56:33;;;;;;;8.85;2.25;;;-6.20;99.90;;;;;;5080877;28;20048;-80
2021/12/26 04:58:59;;;;;;;9.05;2.22;;;-6.10;99.90;;;;;;5097624;28;20112;-77
2021/12/26 05:01:25;;;;;;;6.67;1.70;;;-6.20;99.90;;;;;;5098931;28;20040;-76
2021/12/26 05:03:51;;;;;;;7.70;2.37;;;-6.20;99.90;;;;;;5116403;28;20054;-77
2021/12/26 05:06:17;;;;;;;6.15;1.20;;;-6.20;99.90;;;;;;5132839;27;20039;-75
2021/12/26 05:08:42;;;;;;;9.60;2.27;;;-6.10;99.90;;;;;;5132413;27;20100;-76
2021/12/26 05:11:08;;;;;;;7.80;1.90;;;-6.10;99.90;;;;;;5097866;28;20100;-76
2021/12/26 05:13:34;;;;;;;7.70;2.20;;;-6.10;99.90;;;;;;5098459;28;20139;-81
2021/12/26 05:16:00;;;;;;;4.63;1.67;;;-6.10;99.90;;;;;;5080943;28;20107;-77
2021/12/26 05:18:26;;;;;;;10.45;2.33;;;-6.00;99.90;;;;;;5116193;28;20044;-75
2021/12/26 05:20:52;;;;;;;6.40;2.13;;;-6.00;99.90;;;;;;5064463;28;20080;-76
2021/12/26 05:23:17;;;;;;;6.20;2.20;;;-6.00;99.90;;;;;;5098037;28;20154;-75
2021/12/26 05:25:43;;;;;;;9.55;2.05;;;-6.10;99.90;;;;;;5115830;28;20383;-76
2021/12/26 05:28:09;;;;;;;7.40;2.08;;;-6.10;99.90;;;;;;5097781;28;20036;-75
2021/12/26 05:30:35;;;;;;;7.78;2.55;;;-6.10;99.90;;;;;;5098605;28;20051;-80
2021/12/26 05:33:01;;;;;;;9.95;2.80;;;-6.10;99.90;;;;;;5097729;28;20487;-75
2021/12/26 05:35:27;;;;;;;5.32;1.92;;;-6.10;99.90;;;;;;5131476;27;20605;-76
2021/12/26 05:37:59;;;;;;;5.78;1.42;;;-6.10;99.90;;;;;;5116207;28;20131;-77
2021/12/26 05:40:24;;;;;;;7.57;1.85;;;-6.00;99.90;;;;;;5098460;28;20120;-76
2021/12/26 05:42:50;;;;;;;6.97;2.20;;;-6.00;99.90;;;;;;5100575;28;20051;-76
2021/12/26 05:45:17;;;;;;;12.55;3.05;;;-6.00;99.90;;;;;;5116470;28;20103;-77
2021/12/26 05:47:43;;;;;;;11.70;2.53;;;-6.00;99.90;;;;;;5115433;28;20048;-76
2021/12/26 05:50:12;;;;;;;6.40;2.30;;;-6.00;99.90;;;;;;5131638;27;20043;-76
2021/12/26 05:52:38;;;;;;;6.85;2.40;;;-6.00;99.90;;;;;;5097719;28;20480;-80
2021/12/26 05:55:06;;;;;;;7.25;1.95;;;-6.00;99.90;;;;;;5080837;28;20131;-78
2021/12/26 05:57:32;;;;;;;5.25;1.25;;;-6.00;99.90;;;;;;5097047;28;20064;-78
2021/12/26 05:59:58;;;;;;;6.03;1.52;;;-5.90;99.90;;;;;;5114803;28;20078;-77
2021/12/26 06:02:24;;;;;;;4.38;1.42;;;-5.90;99.90;;;;;;5080688;28;20047;-76
2021/12/26 06:04:49;;;;;;;6.63;2.22;;;-5.80;99.90;;;;;;5080329;28;20051;-76
2021/12/26 06:07:16;;;;;;;8.50;2.10;;;-5.80;99.90;;;;;;5114687;28;20051;-76
2021/12/26 06:09:41;;;;;;;6.93;1.73;;;-5.90;99.90;;;;;;5114032;28;20046;-76
2021/12/26 06:12:08;;;;;;;5.97;2.63;;;-5.90;99.90;;;;;;5080154;28;20550;-76
2021/12/26 06:14:34;;;;;;;7.20;2.33;;;-5.90;99.90;;;;;;5080276;28;20055;-76
2021/12/26 06:16:59;;;;;;;8.02;1.95;;;-5.90;99.90;;;;;;5080198;28;20489;-76
2021/12/26 06:19:25;;;;;;;6.45;2.20;;;-5.90;99.90;;;;;;5114818;28;20048;-76
2021/12/26 06:21:51;;;;;;;8.93;2.40;;;-5.90;99.90;;;;;;5096534;28;20126;-76
2021/12/26 06:24:17;;;;;;;8.15;2.78;;;-5.90;99.90;;;;;;5097109;28;20356;-75
2021/12/26 06:26:43;;;;;;;8.38;1.77;;;-6.00;99.90;;;;;;5097014;28;20091;-78
2021/12/26 06:29:09;;;;;;;4.78;1.83;;;-6.00;99.90;;;;;;5096469;28;20040;-77
2021/12/26 06:31:34;;;;;;;7.80;2.00;;;-5.90;99.90;;;;;;5097213;28;20089;-77
2021/12/26 06:34:00;;;;;;;5.23;1.80;;;-5.90;99.90;;;;;;5080381;28;20501;-75
2021/12/26 06:36:26;;;;;;;7.00;2.00;;;-5.80;99.90;;;;;;5097257;28;20044;-76
2021/12/26 06:38:52;;;;;;;8.07;2.53;;;-5.90;99.90;;;;;;5080355;28;20043;-76
2021/12/26 06:41:18;;;;;;;6.47;2.25;;;-5.80;99.90;;;;;;5063246;28;20051;-76
2021/12/26 06:43:45;;;;;;;8.63;2.63;;;-5.90;99.90;;;;;;5114526;28;20044;-80
2021/12/26 06:46:11;;;;;;;6.18;2.63;;;-5.90;99.90;;;;;;5131884;27;20389;-76
2021/12/26 06:48:41;;;;;;;8.43;2.43;;;-5.90;99.90;;;;;;5098137;28;20071;-76
2021/12/26 06:51:08;;;;;;;8.88;2.47;;;-5.90;99.90;;;;;;5085025;28;20043;-76
2021/12/26 06:53:34;;;;;;;11.45;3.22;;;-6.00;99.90;;;;;;5135242;27;20090;-76
2021/12/26 06:56:00;;;;;;;6.22;2.33;;;-5.90;99.90;;;;;;5131177;27;20476;-76
2021/12/26 06:58:26;;;;;;;10.63;2.70;;;-5.90;99.90;;;;;;5079717;28;20055;-77
2021/12/26 07:00:52;;;;;;;6.72;2.75;;;-6.00;99.90;;;;;;5132113;27;20489;-76
2021/12/26 07:03:17;;;;;;;8.27;2.25;;;-6.00;99.90;;;;;;5115892;28;20039;-76
2021/12/26 07:05:43;;;;;;;6.82;2.75;;;-6.00;99.90;;;;;;5099087;28;20268;-75
2021/12/26 07:08:09;;;;;;;10.38;2.83;;;-6.00;99.90;;;;;;5097905;28;20099;-75
2021/12/26 07:10:35;;;;;;;7.55;2.60;;;-6.00;99.90;;;;;;5133316;27;20048;-77
2021/12/26 07:13:02;;;;;;;8.02;2.38;;;-6.00;99.90;;;;;;5112508;28;20073;-75
2021/12/26 07:15:27;;;;;;;7.33;2.70;;;-6.00;99.90;;;;;;5062543;28;20142;-77
2021/12/26 07:17:53;;;;;;;6.93;2.67;;;-6.00;99.90;;;;;;5062348;28;20143;-77
2021/12/26 07:20:19;;;;;;;8.40;3.28;;;-6.00;99.90;;;;;;5113726;28;20489;-77
2021/12/26 07:22:46;;;;;;;9.90;2.90;;;-6.00;99.90;;;;;;5113884;28;20058;-75
2021/12/26 07:25:13;;;;;;;8.80;3.08;;;-6.00;99.90;;;;;;5113763;28;20137;-75
2021/12/26 07:27:39;;;;;;;;;;;-6.10;99.90;;;;;;5096339;28;20399;-75
2021/12/26 07:30:06;;;;;;;6.60;2.33;;;-6.10;99.90;;;;;;5095910;28;19931;-74
2021/12/26 07:32:32;;;;;;;11.38;3.00;;;-6.10;99.90;;;;;;5096621;28;20134;-75
2021/12/26 07:34:59;;;;;;;9.38;3.85;;;-6.10;99.90;;;;;;5112721;28;20063;-76
2021/12/26 07:37:26;;;;;;;9.07;3.90;;;-6.10;99.90;;;;;;5079009;28;20051;-75
2021/12/26 07:39:52;;;;;;;13.73;3.90;;;-6.10;99.90;;;;;;5112057;28;20044;-76
2021/12/26 07:42:18;;;;;;;10.05;3.15;;;-6.10;99.90;;;;;;5112394;28;20126;-76
2021/12/26 07:44:44;;;;;;;7.95;3.00;;;-6.10;99.90;;;;;;5079016;28;20112;-75
2021/12/26 07:47:10;;;;;;;7.50;3.00;;;-6.10;99.90;;;;;;5114009;28;20091;-77
2021/12/26 07:49:36;;;;;;;10.85;3.60;;;-6.10;99.90;;;;;;5078470;28;20600;-78
2021/12/26 07:52:09;;;;;;;8.55;3.10;;;-6.20;99.90;;;;;;5129198;27;20389;-76
2021/12/26 07:54:35;;;;;;;9.02;3.55;;;-6.10;99.90;;;;;;5112845;28;20048;-76
2021/12/26 07:57:01;;;;;;;9.80;2.60;;;-6.10;99.90;;;;;;5112326;28;20060;-76
2021/12/26 07:59:27;;;;;;;8.20;2.38;;;-6.10;99.90;;;;;;5129268;28;20059;-75
2021/12/26 08:01:53;;;;;;;10.20;3.55;;;-6.00;99.90;;;;;;5095390;28;20075;-80
2021/12/26 08:04:19;;;;;;;9.07;3.90;;;-6.10;99.90;;;;;;5078545;28;20079;-77
2021/12/26 08:06:45;;;;;;;9.00;2.92;;;-6.10;99.90;;;;;;5094634;28;20454;-77
2021/12/26 08:09:11;;;;;;;8.30;3.17;;;-6.00;99.90;;;;;;5095393;28;20048;-74
2021/12/26 08:11:37;;;;;;;10.23;3.28;;;-6.00;99.90;;;;;;5095247;28;20131;-77
2021/12/26 08:14:03;;;;;;;10.10;3.90;;;-6.00;99.90;;;;;;5078468;28;20058;-76
2021/12/26 08:16:29;;;;;;;8.35;3.60;;;-6.00;99.90;;;;;;5077661;28;20139;-77
2021/12/26 08:18:55;;;;;;;10.35;4.10;;;-5.90;99.90;;;;;;5078231;28;20079;-79
2021/12/26 08:21:21;;;;;;;11.20;3.83;;;-5.90;99.90;;;;;;5113645;28;20052;-76
2021/12/26 08:23:47;;;;;;;7.63;3.20;;;-5.90;99.90;;;;;;5094846;28;20388;-78
2021/12/26 08:26:13;;;;;;;8.40;3.17;;;-5.80;99.90;;;;;;5111468;28;20110;-76
2021/12/26 08:28:39;;;;;;;10.30;2.72;;;-5.90;99.90;;;;;;5094665;28;20036;-79
2021/12/26 08:31:05;;;;;;;5.75;1.52;;;-5.80;99.90;;;;;;5081405;28;20054;-76
2021/12/26 08:33:32;;;;;;;6.43;2.67;;;-5.70;99.90;;;;;;5098787;28;20394;-77
2021/12/26 08:35:58;;;;;;;11.32;4.20;;;-5.70;99.90;;;;;;5133073;27;20039;-80
2021/12/26 08:38:24;;;;;;;7.82;2.33;;;-5.60;99.90;;;;;;5098930;28;20112;-77
2021/12/26 08:40:53;;;;;;;13.02;3.97;;;-5.70;99.90;;;;;;5083194;28;20055;-76
2021/12/26 08:43:19;;;;;;;12.43;4.03;;;-5.60;99.90;;;;;;5116941;28;20054;-75
2021/12/26 08:45:47;;;;;;;11.00;3.70;;;-5.60;99.90;;;;;;5099770;28;20056;-77
2021/12/26 08:48:13;;;;;;;8.73;2.67;;;-5.50;99.90;;;;;;5116091;28;20293;-77
2021/12/26 08:50:39;;;;;;;6.63;2.35;;;-5.40;99.90;;;;;;5098673;28;20047;-75
2021/12/26 08:53:05;;;;;;;9.73;2.35;;;-5.40;99.90;;;;;;5117227;28;20048;-75
2021/12/26 08:55:32;;;;;;;9.50;3.75;;;-5.40;99.90;;;;;;5117161;28;20127;-77
2021/12/26 08:57:58;;;;;;;7.38;2.75;;;-5.30;99.90;;;;;;5115232;28;20055;-81
2021/12/26 09:00:24;;;;;;;9.87;4.20;;;-5.30;99.90;;;;;;5116834;28;20056;-76
2021/12/26 09:02:51;;;;;;;4.80;1.65;;;-5.20;99.90;;;;;;5100732;28;20040;-75
2021/12/26 09:05:17;;;;;;;9.77;3.72;;;-5.10;99.90;;;;;;5134707;27;20185;-76
2021/12/26 09:07:44;;;;;;;11.77;3.45;;;-5.00;99.90;;;;;;5103366;28;20043;-78
2021/12/26 09:10:13;;;;;;;10.52;3.08;;;-5.10;99.90;;;;;;5085145;28;20450;-75
2021/12/26 09:12:39;;;;;;;15.40;3.35;;;-4.90;99.90;;;;;;5137966;27;20043;-77
2021/12/26 09:15:11;;;;;;;9.80;3.25;;;-4.90;99.90;;;;;;5102838;28;20062;-77
2021/12/26 09:17:38;;;;;;;12.35;4.13;;;-4.80;99.90;;;;;;5084971;28;20051;-77
2021/12/26 09:20:06;;;;;;;4.53;1.40;;;-4.70;99.90;;;;;;5135564;27;20427;-76
2021/12/26 09:22:32;;;;;;;12.23;4.47;;;-4.70;99.90;;;;;;5101194;28;20168;-75
2021/12/26 09:24:58;;;;;;;15.10;5.57;;;-4.70;99.90;;;;;;5102988;28;20062;-77
2021/12/26 09:27:23;;;;;;;13.95;4.57;;;-4.60;99.90;;;;;;5119365;28;20044;-76
2021/12/26 09:29:50;;;;;;;12.32;4.95;;;-4.60;99.90;;;;;;5133674;27;20127;-75
2021/12/26 09:32:16;;;;;;;10.20;5.10;;;-4.60;99.90;;;;;;5064401;28;20395;-75
2021/12/26 09:34:42;;;;;;;11.93;4.30;;;-4.50;99.90;;;;;;5115758;28;20058;-76
2021/12/26 09:37:09;;;;;;;10.80;5.13;;;-4.50;99.90;;;;;;5097837;28;20043;-75
2021/12/26 09:39:37;;;;;;;4.95;2.10;;;-4.50;99.90;;;;;;5097569;28;20044;-74
2021/12/26 09:42:03;;;;;;;8.50;3.67;;;-4.40;99.90;;;;;;5131856;27;20073;-80
2021/12/26 09:44:29;;;;;;;14.93;4.75;;;-4.30;99.90;;;;;;5081202;28;20435;-75
2021/12/26 09:46:54;;;;;;;18.25;5.50;;;-4.30;99.90;;;;;;5115478;28;20048;-77
2021/12/26 09:49:21;;;;;;;12.57;5.22;;;-4.20;99.90;;;;;;5132056;27;20127;-76
2021/12/26 09:51:50;;;;;;;10.07;4.28;;;-4.20;99.90;;;;;;5097682;28;20144;-77
2021/12/26 09:54:17;;;;;;;14.65;5.30;;;-4.10;99.90;;;;;;5115600;28;20058;-76
2021/12/26 09:56:43;;;;;;;15.20;5.40;;;-4.10;99.90;;;;;;5100066;28;20113;-76
2021/12/26 09:59:16;;;;;;;12.95;3.65;;;-4.00;99.90;;;;;;5098494;28;20056;-77
2021/12/26 10:01:54;;;;;;;20.55;3.70;;;-4.00;99.90;;;;;;5131834;27;20048;-75
2021/12/26 10:04:34;;;;;;;13.68;4.15;;;-3.90;99.90;;;;;;5116047;28;20062;-75
2021/12/26 10:07:06;;;;;;;7.20;2.33;;;-3.80;99.90;;;;;;5115125;28;20087;-76
2021/12/26 10:09:35;;;;;;;8.02;2.75;;;-3.80;99.90;;;;;;5097863;28;20050;-75
2021/12/26 10:12:01;;;;;;;14.98;4.90;;;-3.80;99.90;;;;;;5080316;28;20055;-76
2021/12/26 10:14:29;;;;;;;9.80;4.20;;;-3.70;99.90;;;;;;5130285;27;20063;-76
2021/12/26 10:16:58;;;;;;;11.40;3.85;;;-3.60;99.90;;;;;;5096789;28;20122;-77
2021/12/26 10:19:25;;;;;;;10.18;3.25;;;-3.70;99.90;;;;;;5114724;28;20078;-76
2021/12/26 10:22:00;;;;;;;14.20;4.97;;;-3.50;99.90;;;;;;5114406;28;20079;-76
2021/12/26 10:24:31;;;;;;;8.20;2.75;;;-3.40;99.90;;;;;;5114822;28;20043;-77
2021/12/26 10:27:02;;;;;;;9.82;4.10;;;-3.40;99.90;;;;;;5130916;27;20044;-77
2021/12/26 10:29:33;;;;;;;9.20;2.67;;;-3.30;99.90;;;;;;5130420;27;20452;-77
2021/12/26 10:32:15;;;;;;;12.30;4.82;;;-3.30;99.90;;;;;;5096299;28;20130;-75
2021/12/26 10:34:42;;;;;;;11.90;4.68;;;-3.20;99.90;;;;;;5080165;28;20051;-77
2021/12/26 10:37:17;;;;;;;12.48;4.95;;;-3.20;99.90;;;;;;5114320;28;20184;-76
2021/12/26 10:39:46;;;;;;;12.35;4.45;;;-3.20;99.90;;;;;;5096373;28;20052;-76
2021/12/26 10:42:19;;;;;;;11.27;4.32;;;-3.10;99.90;;;;;;5078557;28;20070;-80
2021/12/26 10:44:54;;;;;;;10.15;4.43;;;-3.10;99.90;;;;;;5130422;27;20054;-74
2021/12/26 10:47:25;;;;;;;6.15;2.63;;;-3.00;99.90;;;;;;5130256;27;20052;-75
2021/12/26 10:49:57;;;;;;;5.85;2.33;;;-2.90;99.90;;;;;;5112388;28;20492;-74
2021/12/26 10:52:29;;;;;;;8.52;3.65;;;-2.80;99.90;;;;;;5130083;27;20119;-77
2021/12/26 10:55:12;;;;;;;8.90;3.90;;;-2.80;99.90;;;;;;5113508;28;20044;-78
2021/12/26 10:57:46;;;;;;;11.95;4.30;;;-2.80;99.90;;;;;;5091742;28;20116;-77
2021/12/26 11:00:31;;;;;;;14.40;5.07;;;-2.70;99.90;;;;;;5093869;28;20389;-81
2021/12/26 11:03:00;;;;;;;10.70;3.35;;;-2.80;99.90;;;;;;5092625;28;20131;-77
2021/12/26 11:05:29;;;;;;;10.52;4.18;;;-2.60;99.90;;;;;;5091812;28;20049;-77
2021/12/26 11:08:02;;;;;;;15.93;6.10;;;-2.60;99.90;;;;;;5092153;28;20048;-76
2021/12/26 11:10:33;;;;;;;37.15;12.07;;;-2.60;99.90;;;;;;5093111;28;20079;-75
2021/12/26 11:13:01;;;;;;;14.82;4.68;;;-2.60;99.90;;;;;;5093635;28;20255;-75
2021/12/26 11:15:30;;;;;;;20.52;9.00;;;-2.50;99.90;;;;;;5092832;28;20461;-75
2021/12/26 11:17:59;;;;;;;17.77;5.53;;;-2.50;99.90;;;;;;5092870;28;20048;-76
2021/12/26 11:20:34;;;;;;;15.45;4.90;;;-2.50;99.90;;;;;;5074946;28;20507;-75
2021/12/26 11:23:09;;;;;;;10.57;3.97;;;-2.50;99.90;;;;;;5092866;28;20555;-76
2021/12/26 11:25:38;;;;;;;10.43;4.07;;;-2.30;99.90;;;;;;5075295;28;20382;-77
2021/12/26 11:28:04;;;;;;;13.07;4.32;;;-2.30;99.90;;;;;;5092918;28;20044;-79
2021/12/26 11:30:29;;;;;;;14.85;5.18;;;-2.30;99.90;;;;;;5091443;28;20108;-74
2021/12/26 11:32:56;;;;;;;12.85;5.22;;;-2.30;99.90;;;;;;5093406;28;20047;-75
2021/12/26 11:35:22;;;;;;;12.02;4.20;;;-2.30;99.90;;;;;;5075314;28;20054;-76
2021/12/26 11:37:48;;;;;;;14.10;4.97;;;-2.20;99.90;;;;;;5093032;28;20474;-78
2021/12/26 11:40:15;;;;;;;11.20;4.53;;;-2.20;99.90;;;;;;5077066;28;20060;-76
2021/12/26 11:42:56;;;;;;;;;;;-2.10;99.90;;;;;;5093772;28;20048;-74
2021/12/26 11:46:02;;;;;;;9.88;3.95;;;-2.10;99.90;;;;;;5091281;28;19931;-75
2021/12/26 11:49:16;;;;;;;15.73;5.70;;;-2.00;99.90;;;;;;5093191;28;20368;-75
2021/12/26 11:51:45;;;;;;;9.70;3.13;;;-2.00;99.90;;;;;;5060788;28;20064;-74
2021/12/26 11:54:30;;;;;;;13.15;4.93;;;-2.00;99.90;;;;;;5076611;28;20131;-75
2021/12/26 11:57:12;;;;;;;14.20;5.22;;;-1.90;99.90;;;;;;5092313;28;20568;-75
2021/12/26 12:00:02;;;;;;;12.18;4.15;;;-1.90;99.90;;;;;;5071939;28;20049;-74
2021/12/26 12:02:56;;;;;;;16.05;6.00;;;-1.90;99.90;;;;;;5072851;28;20044;-74
2021/12/26 12:05:35;;;;;;;9.13;3.70;;;-1.80;99.90;;;;;;5069193;28;20072;-78
2021/12/26 12:08:04;;;;;;;12.77;4.63;;;-1.80;99.90;;;;;;5073130;28;20048;-76
2021/12/26 12:10:41;;;;;;;13.32;5.35;;;-1.70;99.90;;;;;;5054584;28;20116;-75
2021/12/26 12:13:33;;;;;;;12.63;5.13;;;-1.80;99.90;;;;;;5071747;28;20473;-77
2021/12/26 12:16:24;;;;;;;15.75;5.80;;;-1.80;99.90;;;;;;5072173;28;20385;-76
2021/12/26 12:18:50;;;;;;;14.55;4.68;;;-1.70;99.90;;;;;;5071696;28;20037;-75
2021/12/26 12:21:29;;;;;;;14.85;4.95;;;-1.60;99.90;;;;;;5074179;28;20083;-77
2021/12/26 12:24:15;;;;;;;14.27;5.70;;;-1.60;99.90;;;;;;5055770;28;20072;-76
2021/12/26 12:26:49;;;;;;;11.38;5.53;;;-1.60;99.90;;;;;;5072210;28;20055;-75
2021/12/26 12:29:30;;;;;;;16.42;5.35;;;-1.40;99.90;;;;;;5055892;28;20051;-74
2021/12/26 12:32:08;;;;;;;10.45;4.82;;;-1.50;99.90;;;;;;5073004;28;20041;-75
2021/12/26 12:34:57;;;;;;;15.25;5.00;;;-1.40;99.90;;;;;;5054391;28;20135;-73
2021/12/26 12:37:40;;;;;;;12.82;5.10;;;-1.30;99.90;;;;;;5072889;28;20074;-75
2021/12/26 12:40:18;;;;;;;14.35;4.85;;;-1.20;99.90;;;;;;5071362;28;20449;-77
2021/12/26 12:43:07;;;;;;;8.75;2.85;;;-1.20;99.90;;;;;;5070472;28;20102;-75
2021/12/26 12:48:29;;;;;;;14.48;5.35;;;-1.40;99.90;;;;;;5072194;28;20434;-74
2021/12/26 12:50:59;;;;;;;13.57;4.63;;;-1.30;99.90;;;;;;5074535;28;20076;-77
2021/12/26 12:53:39;;;;;;;15.82;5.75;;;-0.90;99.90;;;;;;5073721;28;20044;-75
2021/12/26 12:56:06;;;;;;;15.55;5.50;;;-1.30;99.90;;;;;;5071770;28;20155;-76
2021/12/26 12:58:36;;;;;;;15.68;5.07;;;-1.30;99.90;;;;;;5084758;28;20081;-74
2021/12/26 13:01:06;;;;;;;14.93;5.78;;;-1.30;99.90;;;;;;5075271;28;20048;-75